sensor_id;sensor_type;location;lat;lon;timestamp;P1;durP1;ratioP1;P2;durP2;ratioP2
11970;SDS011;6045;42.682;23.294;2023-04-25T00:01:15;3.30;;;1.90;;
11970;SDS011;6045;42.682;23.294;2023-04-25T00:03:43;1.27;;;1.10;;
11970;SDS011;6045;42.682;23.294;2023-04-25T00:06:10;2.90;;;1.60;;
11970;SDS011;6045;42.682;23.294;2023-04-25T00:08:39;1.10;;;0.97;;
11970;SDS011;6045;42.682;23.294;2023-04-25T00:11:06;1.70;;;1.33;;
11970;SDS011;6045;42.682;23.294;2023-04-25T00:13:32;2.03;;;1.73;;
11970;SDS011;6045;42.682;23.294;2023-04-25T00:15:59;1.70;;;1.57;;
11970;SDS011;6045;42.682;23.294;2023-04-25T00:18:27;2.33;;;1.60;;
11970;SDS011;6045;42.682;23.294;2023-04-25T00:20:55;2.57;;;1.53;;
11970;SDS011;6045;42.682;23.294;2023-04-25T00:23:22;1.90;;;1.70;;
11970;SDS011;6045;42.682;23.294;2023-04-25T00:25:49;1.70;;;1.60;;
11970;SDS011;6045;42.682;23.294;2023-04-25T00:28:16;2.57;;;1.77;;
11970;SDS011;6045;42.682;23.294;2023-04-25T00:30:45;2.90;;;2.03;;
11970;SDS011;6045;42.682;23.294;2023-04-25T00:33:12;1.67;;;1.57;;
11970;SDS011;6045;42.682;23.294;2023-04-25T00:35:39;1.60;;;1.50;;
11970;SDS011;6045;42.682;23.294;2023-04-25T00:38:07;1.60;;;1.50;;
11970;SDS011;6045;42.682;23.294;2023-04-25T00:40:34;3.03;;;2.00;;
11970;SDS011;6045;42.682;23.294;2023-04-25T00:43:01;3.50;;;2.00;;
11970;SDS011;6045;42.682;23.294;2023-04-25T00:45:28;2.00;;;1.47;;
11970;SDS011;6045;42.682;23.294;2023-04-25T00:47:55;2.43;;;1.90;;
11970;SDS011;6045;42.682;23.294;2023-04-25T00:50:23;2.77;;;1.57;;
11970;SDS011;6045;42.682;23.294;2023-04-25T00:52:50;4.43;;;2.23;;
11970;SDS011;6045;42.682;23.294;2023-04-25T00:55:18;5.70;;;1.27;;
11970;SDS011;6045;42.682;23.294;2023-04-25T00:57:46;3.57;;;1.30;;
11970;SDS011;6045;42.682;23.294;2023-04-25T01:00:13;2.30;;;1.80;;
11970;SDS011;6045;42.682;23.294;2023-04-25T01:02:40;2.33;;;1.73;;
11970;SDS011;6045;42.682;23.294;2023-04-25T01:05:10;1.90;;;1.70;;
11970;SDS011;6045;42.682;23.294;2023-04-25T01:07:38;3.83;;;2.37;;
11970;SDS011;6045;42.682;23.294;2023-04-25T01:10:06;3.90;;;1.97;;
11970;SDS011;6045;42.682;23.294;2023-04-25T01:12:35;3.23;;;1.97;;
11970;SDS011;6045;42.682;23.294;2023-04-25T01:15:01;3.67;;;2.07;;
11970;SDS011;6045;42.682;23.294;2023-04-25T01:17:28;2.70;;;1.93;;
11970;SDS011;6045;42.682;23.294;2023-04-25T01:19:56;3.63;;;2.60;;
11970;SDS011;6045;42.682;23.294;2023-04-25T01:22:24;2.53;;;1.90;;
11970;SDS011;6045;42.682;23.294;2023-04-25T01:24:51;3.60;;;2.50;;
11970;SDS011;6045;42.682;23.294;2023-04-25T01:27:18;2.80;;;2.20;;
11970;SDS011;6045;42.682;23.294;2023-04-25T01:29:45;4.07;;;2.50;;
11970;SDS011;6045;42.682;23.294;2023-04-25T01:32:12;4.10;;;2.53;;
11970;SDS011;6045;42.682;23.294;2023-04-25T01:34:40;4.13;;;2.60;;
11970;SDS011;6045;42.682;23.294;2023-04-25T01:37:06;3.97;;;2.63;;
11970;SDS011;6045;42.682;23.294;2023-04-25T01:39:34;2.93;;;1.97;;
11970;SDS011;6045;42.682;23.294;2023-04-25T01:42:01;3.17;;;1.60;;
11970;SDS011;6045;42.682;23.294;2023-04-25T01:44:28;2.37;;;1.77;;
11970;SDS011;6045;42.682;23.294;2023-04-25T01:46:55;3.30;;;2.00;;
11970;SDS011;6045;42.682;23.294;2023-04-25T01:49:22;5.57;;;2.10;;
11970;SDS011;6045;42.682;23.294;2023-04-25T01:51:48;3.40;;;2.50;;
11970;SDS011;6045;42.682;23.294;2023-04-25T01:54:15;5.53;;;3.80;;
11970;SDS011;6045;42.682;23.294;2023-04-25T01:56:49;5.23;;;2.60;;
11970;SDS011;6045;42.682;23.294;2023-04-25T01:59:16;3.23;;;2.27;;
11970;SDS011;6045;42.682;23.294;2023-04-25T02:01:45;3.70;;;2.63;;
11970;SDS011;6045;42.682;23.294;2023-04-25T02:04:12;4.33;;;2.37;;
11970;SDS011;6045;42.682;23.294;2023-04-25T02:06:38;4.47;;;2.70;;
11970;SDS011;6045;42.682;23.294;2023-04-25T02:09:05;3.37;;;2.30;;
11970;SDS011;6045;42.682;23.294;2023-04-25T02:11:32;2.47;;;1.97;;
11970;SDS011;6045;42.682;23.294;2023-04-25T02:14:00;3.83;;;2.60;;
11970;SDS011;6045;42.682;23.294;2023-04-25T02:16:27;3.37;;;1.93;;
11970;SDS011;6045;42.682;23.294;2023-04-25T02:18:55;2.70;;;1.80;;
11970;SDS011;6045;42.682;23.294;2023-04-25T02:21:22;3.93;;;2.07;;
11970;SDS011;6045;42.682;23.294;2023-04-25T02:23:49;3.40;;;2.30;;
11970;SDS011;6045;42.682;23.294;2023-04-25T02:26:17;3.07;;;2.17;;
11970;SDS011;6045;42.682;23.294;2023-04-25T02:28:43;4.63;;;2.67;;
11970;SDS011;6045;42.682;23.294;2023-04-25T02:31:11;3.27;;;2.40;;
11970;SDS011;6045;42.682;23.294;2023-04-25T02:33:38;2.77;;;1.60;;
11970;SDS011;6045;42.682;23.294;2023-04-25T02:36:05;4.83;;;1.93;;
11970;SDS011;6045;42.682;23.294;2023-04-25T02:38:32;2.57;;;2.23;;
11970;SDS011;6045;42.682;23.294;2023-04-25T02:40:59;2.60;;;1.93;;
11970;SDS011;6045;42.682;23.294;2023-04-25T02:43:26;2.93;;;1.90;;
11970;SDS011;6045;42.682;23.294;2023-04-25T02:45:53;5.10;;;2.70;;
11970;SDS011;6045;42.682;23.294;2023-04-25T02:48:21;3.10;;;1.90;;
11970;SDS011;6045;42.682;23.294;2023-04-25T02:50:48;3.30;;;2.00;;
11970;SDS011;6045;42.682;23.294;2023-04-25T02:53:15;3.70;;;2.20;;
11970;SDS011;6045;42.682;23.294;2023-04-25T02:55:41;3.93;;;2.07;;
11970;SDS011;6045;42.682;23.294;2023-04-25T02:58:08;4.37;;;2.57;;
11970;SDS011;6045;42.682;23.294;2023-04-25T03:00:35;4.53;;;2.17;;
11970;SDS011;6045;42.682;23.294;2023-04-25T03:03:02;4.47;;;2.67;;
11970;SDS011;6045;42.682;23.294;2023-04-25T03:05:30;4.47;;;2.27;;
11970;SDS011;6045;42.682;23.294;2023-04-25T03:07:57;3.30;;;1.80;;
11970;SDS011;6045;42.682;23.294;2023-04-25T03:10:23;3.13;;;2.53;;
11970;SDS011;6045;42.682;23.294;2023-04-25T03:12:50;3.33;;;1.70;;
11970;SDS011;6045;42.682;23.294;2023-04-25T03:15:17;2.23;;;2.00;;
11970;SDS011;6045;42.682;23.294;2023-04-25T03:17:44;3.03;;;2.20;;
11970;SDS011;6045;42.682;23.294;2023-04-25T03:20:11;4.00;;;2.10;;
11970;SDS011;6045;42.682;23.294;2023-04-25T03:22:39;2.73;;;2.13;;
11970;SDS011;6045;42.682;23.294;2023-04-25T03:25:06;2.90;;;2.33;;
11970;SDS011;6045;42.682;23.294;2023-04-25T03:27:34;3.27;;;2.07;;
11970;SDS011;6045;42.682;23.294;2023-04-25T03:30:01;4.17;;;2.47;;
11970;SDS011;6045;42.682;23.294;2023-04-25T03:32:28;2.80;;;2.47;;
11970;SDS011;6045;42.682;23.294;2023-04-25T03:34:55;3.97;;;2.77;;
11970;SDS011;6045;42.682;23.294;2023-04-25T03:37:21;4.00;;;2.30;;
11970;SDS011;6045;42.682;23.294;2023-04-25T03:39:49;3.27;;;2.13;;
11970;SDS011;6045;42.682;23.294;2023-04-25T03:42:16;2.60;;;2.30;;
11970;SDS011;6045;42.682;23.294;2023-04-25T03:44:43;2.87;;;2.53;;
11970;SDS011;6045;42.682;23.294;2023-04-25T03:47:10;4.90;;;2.50;;
11970;SDS011;6045;42.682;23.294;2023-04-25T03:49:36;4.23;;;2.70;;
11970;SDS011;6045;42.682;23.294;2023-04-25T03:52:03;3.60;;;2.73;;
11970;SDS011;6045;42.682;23.294;2023-04-25T03:54:30;4.27;;;2.73;;
11970;SDS011;6045;42.682;23.294;2023-04-25T03:56:58;2.97;;;2.20;;
11970;SDS011;6045;42.682;23.294;2023-04-25T03:59:25;17.23;;;9.40;;
11970;SDS011;6045;42.682;23.294;2023-04-25T04:01:52;3.40;;;2.47;;
11970;SDS011;6045;42.682;23.294;2023-04-25T04:04:18;3.80;;;1.93;;
11970;SDS011;6045;42.682;23.294;2023-04-25T04:06:45;3.90;;;2.60;;
11970;SDS011;6045;42.682;23.294;2023-04-25T04:09:12;3.37;;;1.97;;
11970;SDS011;6045;42.682;23.294;2023-04-25T04:11:38;4.10;;;2.50;;
11970;SDS011;6045;42.682;23.294;2023-04-25T04:14:07;4.50;;;2.60;;
11970;SDS011;6045;42.682;23.294;2023-04-25T04:16:35;3.90;;;2.80;;
11970;SDS011;6045;42.682;23.294;2023-04-25T04:19:02;3.57;;;2.80;;
11970;SDS011;6045;42.682;23.294;2023-04-25T04:21:28;2.67;;;2.47;;
11970;SDS011;6045;42.682;23.294;2023-04-25T04:23:55;3.43;;;2.70;;
11970;SDS011;6045;42.682;23.294;2023-04-25T04:26:22;3.20;;;2.43;;
11970;SDS011;6045;42.682;23.294;2023-04-25T04:28:49;3.90;;;2.30;;
11970;SDS011;6045;42.682;23.294;2023-04-25T04:31:18;3.60;;;2.53;;
11970;SDS011;6045;42.682;23.294;2023-04-25T04:33:45;2.90;;;2.17;;
11970;SDS011;6045;42.682;23.294;2023-04-25T04:36:12;3.67;;;1.93;;
11970;SDS011;6045;42.682;23.294;2023-04-25T04:38:38;3.33;;;2.90;;
11970;SDS011;6045;42.682;23.294;2023-04-25T04:41:07;3.47;;;2.40;;
11970;SDS011;6045;42.682;23.294;2023-04-25T04:43:34;4.83;;;2.87;;
11970;SDS011;6045;42.682;23.294;2023-04-25T04:46:01;5.13;;;2.60;;
11970;SDS011;6045;42.682;23.294;2023-04-25T04:48:30;4.00;;;2.37;;
11970;SDS011;6045;42.682;23.294;2023-04-25T04:50:59;3.87;;;2.80;;
11970;SDS011;6045;42.682;23.294;2023-04-25T04:53:26;4.80;;;3.00;;
11970;SDS011;6045;42.682;23.294;2023-04-25T04:55:53;4.33;;;3.07;;
11970;SDS011;6045;42.682;23.294;2023-04-25T04:58:21;3.23;;;2.47;;
11970;SDS011;6045;42.682;23.294;2023-04-25T05:00:48;4.27;;;2.37;;
11970;SDS011;6045;42.682;23.294;2023-04-25T05:03:15;3.37;;;2.37;;
11970;SDS011;6045;42.682;23.294;2023-04-25T05:05:45;3.40;;;3.10;;
11970;SDS011;6045;42.682;23.294;2023-04-25T05:08:12;4.17;;;2.77;;
11970;SDS011;6045;42.682;23.294;2023-04-25T05:10:39;6.63;;;3.47;;
11970;SDS011;6045;42.682;23.294;2023-04-25T05:13:06;3.50;;;3.20;;
11970;SDS011;6045;42.682;23.294;2023-04-25T05:15:33;6.50;;;3.17;;
11970;SDS011;6045;42.682;23.294;2023-04-25T05:18:00;2.53;;;2.27;;
11970;SDS011;6045;42.682;23.294;2023-04-25T05:20:27;5.67;;;2.93;;
11970;SDS011;6045;42.682;23.294;2023-04-25T05:22:55;4.20;;;2.77;;
11970;SDS011;6045;42.682;23.294;2023-04-25T05:25:21;5.60;;;3.73;;
11970;SDS011;6045;42.682;23.294;2023-04-25T05:27:48;5.23;;;3.67;;
11970;SDS011;6045;42.682;23.294;2023-04-25T05:30:16;8.93;;;4.77;;
11970;SDS011;6045;42.682;23.294;2023-04-25T05:32:42;6.73;;;4.40;;
11970;SDS011;6045;42.682;23.294;2023-04-25T05:35:09;6.53;;;4.63;;
11970;SDS011;6045;42.682;23.294;2023-04-25T05:37:36;9.07;;;5.23;;
11970;SDS011;6045;42.682;23.294;2023-04-25T05:40:05;7.23;;;4.20;;
11970;SDS011;6045;42.682;23.294;2023-04-25T05:42:33;7.23;;;3.53;;
11970;SDS011;6045;42.682;23.294;2023-04-25T05:44:59;5.87;;;3.60;;
11970;SDS011;6045;42.682;23.294;2023-04-25T05:47:26;4.80;;;3.60;;
11970;SDS011;6045;42.682;23.294;2023-04-25T05:49:53;9.70;;;3.97;;
11970;SDS011;6045;42.682;23.294;2023-04-25T05:52:20;7.57;;;3.97;;
11970;SDS011;6045;42.682;23.294;2023-04-25T05:54:47;5.03;;;3.10;;
11970;SDS011;6045;42.682;23.294;2023-04-25T05:57:22;6.77;;;4.00;;
11970;SDS011;6045;42.682;23.294;2023-04-25T05:59:50;28.47;;;13.63;;
11970;SDS011;6045;42.682;23.294;2023-04-25T06:02:17;9.70;;;6.03;;
11970;SDS011;6045;42.682;23.294;2023-04-25T06:04:45;5.83;;;3.33;;
11970;SDS011;6045;42.682;23.294;2023-04-25T06:07:12;5.20;;;3.90;;
11970;SDS011;6045;42.682;23.294;2023-04-25T06:09:39;5.63;;;3.73;;
11970;SDS011;6045;42.682;23.294;2023-04-25T06:12:06;3.47;;;2.60;;
11970;SDS011;6045;42.682;23.294;2023-04-25T06:14:34;4.97;;;3.73;;
11970;SDS011;6045;42.682;23.294;2023-04-25T06:17:01;7.10;;;3.60;;
11970;SDS011;6045;42.682;23.294;2023-04-25T06:19:31;6.97;;;3.93;;
11970;SDS011;6045;42.682;23.294;2023-04-25T06:21:58;6.00;;;4.00;;
11970;SDS011;6045;42.682;23.294;2023-04-25T06:24:25;6.57;;;4.57;;
11970;SDS011;6045;42.682;23.294;2023-04-25T06:26:51;9.50;;;4.17;;
11970;SDS011;6045;42.682;23.294;2023-04-25T06:29:18;5.40;;;3.80;;
11970;SDS011;6045;42.682;23.294;2023-04-25T06:31:47;5.27;;;4.03;;
11970;SDS011;6045;42.682;23.294;2023-04-25T06:34:13;8.03;;;3.63;;
11970;SDS011;6045;42.682;23.294;2023-04-25T06:36:40;5.33;;;3.90;;
11970;SDS011;6045;42.682;23.294;2023-04-25T06:39:09;5.10;;;3.93;;
11970;SDS011;6045;42.682;23.294;2023-04-25T06:41:36;10.97;;;4.27;;
11970;SDS011;6045;42.682;23.294;2023-04-25T06:44:03;5.17;;;3.27;;
11970;SDS011;6045;42.682;23.294;2023-04-25T06:46:29;4.17;;;3.37;;
11970;SDS011;6045;42.682;23.294;2023-04-25T06:48:57;4.90;;;3.03;;
11970;SDS011;6045;42.682;23.294;2023-04-25T06:51:24;6.17;;;3.13;;
11970;SDS011;6045;42.682;23.294;2023-04-25T06:53:54;3.63;;;3.23;;
11970;SDS011;6045;42.682;23.294;2023-04-25T06:56:21;4.60;;;3.20;;
11970;SDS011;6045;42.682;23.294;2023-04-25T06:58:48;3.90;;;2.70;;
11970;SDS011;6045;42.682;23.294;2023-04-25T07:01:15;3.93;;;2.70;;
11970;SDS011;6045;42.682;23.294;2023-04-25T07:03:41;3.67;;;2.87;;
11970;SDS011;6045;42.682;23.294;2023-04-25T07:06:09;3.30;;;2.93;;
11970;SDS011;6045;42.682;23.294;2023-04-25T07:08:36;3.03;;;2.23;;
11970;SDS011;6045;42.682;23.294;2023-04-25T07:11:03;3.77;;;2.47;;
11970;SDS011;6045;42.682;23.294;2023-04-25T07:13:30;4.63;;;2.70;;
11970;SDS011;6045;42.682;23.294;2023-04-25T07:15:56;2.60;;;1.90;;
11970;SDS011;6045;42.682;23.294;2023-04-25T07:18:23;4.00;;;2.70;;
11970;SDS011;6045;42.682;23.294;2023-04-25T07:20:50;3.37;;;2.63;;
11970;SDS011;6045;42.682;23.294;2023-04-25T07:23:18;4.33;;;2.80;;
11970;SDS011;6045;42.682;23.294;2023-04-25T07:25:45;4.63;;;2.50;;
11970;SDS011;6045;42.682;23.294;2023-04-25T07:28:12;3.33;;;2.70;;
11970;SDS011;6045;42.682;23.294;2023-04-25T07:30:39;5.43;;;2.83;;
11970;SDS011;6045;42.682;23.294;2023-04-25T07:33:05;3.60;;;2.47;;
11970;SDS011;6045;42.682;23.294;2023-04-25T07:35:32;4.33;;;3.10;;
11970;SDS011;6045;42.682;23.294;2023-04-25T07:37:59;5.00;;;3.20;;
11970;SDS011;6045;42.682;23.294;2023-04-25T07:40:27;4.67;;;2.93;;
11970;SDS011;6045;42.682;23.294;2023-04-25T07:42:53;4.32;;;3.25;;
11970;SDS011;6045;42.682;23.294;2023-04-25T07:45:20;6.38;;;3.85;;
11970;SDS011;6045;42.682;23.294;2023-04-25T07:47:47;5.93;;;3.07;;
11970;SDS011;6045;42.682;23.294;2023-04-25T07:50:14;5.10;;;3.63;;
11970;SDS011;6045;42.682;23.294;2023-04-25T07:52:41;3.33;;;2.70;;
11970;SDS011;6045;42.682;23.294;2023-04-25T07:55:08;3.17;;;2.70;;
11970;SDS011;6045;42.682;23.294;2023-04-25T07:57:36;3.75;;;3.33;;
11970;SDS011;6045;42.682;23.294;2023-04-25T08:00:03;5.37;;;3.60;;
11970;SDS011;6045;42.682;23.294;2023-04-25T08:02:34;4.57;;;3.33;;
11970;SDS011;6045;42.682;23.294;2023-04-25T08:05:01;3.43;;;2.40;;
11970;SDS011;6045;42.682;23.294;2023-04-25T08:07:28;2.70;;;2.35;;
11970;SDS011;6045;42.682;23.294;2023-04-25T08:09:55;4.88;;;3.10;;
11970;SDS011;6045;42.682;23.294;2023-04-25T08:12:21;4.07;;;3.45;;
11970;SDS011;6045;42.682;23.294;2023-04-25T08:14:49;7.05;;;3.25;;
11970;SDS011;6045;42.682;23.294;2023-04-25T08:17:16;3.58;;;2.70;;
11970;SDS011;6045;42.682;23.294;2023-04-25T08:19:43;5.22;;;3.33;;
11970;SDS011;6045;42.682;23.294;2023-04-25T08:22:10;6.25;;;2.83;;
11970;SDS011;6045;42.682;23.294;2023-04-25T08:24:37;3.65;;;2.80;;
11970;SDS011;6045;42.682;23.294;2023-04-25T08:27:04;4.75;;;3.35;;
11970;SDS011;6045;42.682;23.294;2023-04-25T08:29:31;2.70;;;2.25;;
11970;SDS011;6045;42.682;23.294;2023-04-25T08:32:00;4.40;;;2.60;;
11970;SDS011;6045;42.682;23.294;2023-04-25T08:34:26;4.28;;;2.78;;
11970;SDS011;6045;42.682;23.294;2023-04-25T08:36:53;3.08;;;2.42;;
11970;SDS011;6045;42.682;23.294;2023-04-25T08:39:20;3.65;;;2.20;;
11970;SDS011;6045;42.682;23.294;2023-04-25T08:41:47;1.67;;;1.42;;
11970;SDS011;6045;42.682;23.294;2023-04-25T08:44:14;2.42;;;1.40;;
11970;SDS011;6045;42.682;23.294;2023-04-25T08:46:41;2.40;;;1.80;;
11970;SDS011;6045;42.682;23.294;2023-04-25T08:49:12;4.30;;;2.30;;
11970;SDS011;6045;42.682;23.294;2023-04-25T08:51:40;4.40;;;2.75;;
11970;SDS011;6045;42.682;23.294;2023-04-25T08:54:12;2.88;;;2.10;;
11970;SDS011;6045;42.682;23.294;2023-04-25T08:56:40;2.65;;;1.63;;
11970;SDS011;6045;42.682;23.294;2023-04-25T08:59:10;1.90;;;1.20;;
11970;SDS011;6045;42.682;23.294;2023-04-25T09:01:37;1.75;;;1.65;;
11970;SDS011;6045;42.682;23.294;2023-04-25T09:04:04;1.20;;;1.08;;
11970;SDS011;6045;42.682;23.294;2023-04-25T09:06:32;1.77;;;1.40;;
11970;SDS011;6045;42.682;23.294;2023-04-25T09:09:01;1.98;;;1.45;;
11970;SDS011;6045;42.682;23.294;2023-04-25T09:11:30;3.45;;;1.70;;
11970;SDS011;6045;42.682;23.294;2023-04-25T09:14:09;2.00;;;1.77;;
11970;SDS011;6045;42.682;23.294;2023-04-25T09:16:50;2.50;;;1.80;;
11970;SDS011;6045;42.682;23.294;2023-04-25T09:19:25;1.40;;;1.30;;
11970;SDS011;6045;42.682;23.294;2023-04-25T09:21:54;3.05;;;1.92;;
11970;SDS011;6045;42.682;23.294;2023-04-25T09:24:29;3.05;;;2.05;;
11970;SDS011;6045;42.682;23.294;2023-04-25T09:26:57;2.10;;;1.90;;
11970;SDS011;6045;42.682;23.294;2023-04-25T09:29:28;2.35;;;1.98;;
11970;SDS011;6045;42.682;23.294;2023-04-25T09:32:06;2.30;;;1.75;;
11970;SDS011;6045;42.682;23.294;2023-04-25T09:34:38;3.75;;;2.17;;
11970;SDS011;6045;42.682;23.294;2023-04-25T09:37:09;3.72;;;2.20;;
11970;SDS011;6045;42.682;23.294;2023-04-25T09:39:37;4.28;;;2.33;;
11970;SDS011;6045;42.682;23.294;2023-04-25T09:42:04;2.25;;;2.03;;
11970;SDS011;6045;42.682;23.294;2023-04-25T09:44:31;2.05;;;1.40;;
11970;SDS011;6045;42.682;23.294;2023-04-25T09:46:58;0.60;;;0.60;;
11970;SDS011;6045;42.682;23.294;2023-04-25T09:49:26;0.65;;;0.65;;
11970;SDS011;6045;42.682;23.294;2023-04-25T09:51:54;0.82;;;0.65;;
11970;SDS011;6045;42.682;23.294;2023-04-25T09:54:23;1.40;;;1.30;;
11970;SDS011;6045;42.682;23.294;2023-04-25T09:56:51;1.92;;;1.38;;
11970;SDS011;6045;42.682;23.294;2023-04-25T09:59:19;1.38;;;0.98;;
11970;SDS011;6045;42.682;23.294;2023-04-25T10:01:47;2.42;;;1.20;;
11970;SDS011;6045;42.682;23.294;2023-04-25T10:04:16;3.65;;;1.40;;
11970;SDS011;6045;42.682;23.294;2023-04-25T10:06:48;1.98;;;1.30;;
11970;SDS011;6045;42.682;23.294;2023-04-25T10:09:15;1.83;;;1.25;;
11970;SDS011;6045;42.682;23.294;2023-04-25T10:11:46;2.45;;;1.50;;
11970;SDS011;6045;42.682;23.294;2023-04-25T10:14:14;1.95;;;1.50;;
11970;SDS011;6045;42.682;23.294;2023-04-25T10:16:41;0.95;;;0.85;;
11970;SDS011;6045;42.682;23.294;2023-04-25T10:19:08;0.80;;;0.52;;
11970;SDS011;6045;42.682;23.294;2023-04-25T10:21:35;1.23;;;0.98;;
11970;SDS011;6045;42.682;23.294;2023-04-25T10:24:05;0.85;;;0.52;;
11970;SDS011;6045;42.682;23.294;2023-04-25T10:26:33;0.80;;;0.80;;
11970;SDS011;6045;42.682;23.294;2023-04-25T10:29:01;0.85;;;0.70;;
11970;SDS011;6045;42.682;23.294;2023-04-25T10:31:29;2.47;;;1.52;;
11970;SDS011;6045;42.682;23.294;2023-04-25T10:33:56;0.60;;;0.60;;
11970;SDS011;6045;42.682;23.294;2023-04-25T10:36:27;0.57;;;0.50;;
11970;SDS011;6045;42.682;23.294;2023-04-25T10:38:58;0.95;;;0.95;;
11970;SDS011;6045;42.682;23.294;2023-04-25T10:41:32;1.25;;;0.80;;
11970;SDS011;6045;42.682;23.294;2023-04-25T10:44:13;0.90;;;0.43;;
11970;SDS011;6045;42.682;23.294;2023-04-25T10:46:40;0.70;;;0.50;;
11970;SDS011;6045;42.682;23.294;2023-04-25T10:49:07;0.88;;;0.70;;
11970;SDS011;6045;42.682;23.294;2023-04-25T10:51:35;0.70;;;0.47;;
11970;SDS011;6045;42.682;23.294;2023-04-25T10:54:03;1.02;;;0.88;;
11970;SDS011;6045;42.682;23.294;2023-04-25T10:56:32;0.82;;;0.80;;
11970;SDS011;6045;42.682;23.294;2023-04-25T10:59:04;0.70;;;0.70;;
11970;SDS011;6045;42.682;23.294;2023-04-25T11:01:37;0.65;;;0.65;;
11970;SDS011;6045;42.682;23.294;2023-04-25T11:04:05;0.25;;;0.25;;
11970;SDS011;6045;42.682;23.294;2023-04-25T11:06:35;0.40;;;0.40;;
11970;SDS011;6045;42.682;23.294;2023-04-25T11:09:13;0.38;;;0.38;;
11970;SDS011;6045;42.682;23.294;2023-04-25T11:11:39;0.50;;;0.30;;
11970;SDS011;6045;42.682;23.294;2023-04-25T11:14:06;1.13;;;0.60;;
11970;SDS011;6045;42.682;23.294;2023-04-25T11:16:33;0.30;;;0.30;;
11970;SDS011;6045;42.682;23.294;2023-04-25T11:19:02;0.32;;;0.30;;
11970;SDS011;6045;42.682;23.294;2023-04-25T11:21:30;0.30;;;0.30;;
11970;SDS011;6045;42.682;23.294;2023-04-25T11:23:57;0.30;;;0.30;;
11970;SDS011;6045;42.682;23.294;2023-04-25T11:26:26;0.82;;;0.47;;
11970;SDS011;6045;42.682;23.294;2023-04-25T11:28:56;0.57;;;0.57;;
11970;SDS011;6045;42.682;23.294;2023-04-25T11:31:24;1.50;;;0.50;;
11970;SDS011;6045;42.682;23.294;2023-04-25T11:33:52;0.38;;;0.38;;
11970;SDS011;6045;42.682;23.294;2023-04-25T11:36:22;0.50;;;0.50;;
11970;SDS011;6045;42.682;23.294;2023-04-25T11:38:48;1.20;;;0.50;;
11970;SDS011;6045;42.682;23.294;2023-04-25T11:41:16;0.60;;;0.60;;
11970;SDS011;6045;42.682;23.294;2023-04-25T11:43:43;0.93;;;0.60;;
11970;SDS011;6045;42.682;23.294;2023-04-25T11:46:10;0.82;;;0.60;;
11970;SDS011;6045;42.682;23.294;2023-04-25T11:48:38;0.30;;;0.30;;
11970;SDS011;6045;42.682;23.294;2023-04-25T11:51:05;0.32;;;0.32;;
11970;SDS011;6045;42.682;23.294;2023-04-25T11:53:33;0.97;;;0.87;;
11970;SDS011;6045;42.682;23.294;2023-04-25T11:56:00;0.70;;;0.50;;
11970;SDS011;6045;42.682;23.294;2023-04-25T11:58:27;0.30;;;0.30;;
11970;SDS011;6045;42.682;23.294;2023-04-25T12:00:54;0.63;;;0.47;;
11970;SDS011;6045;42.682;23.294;2023-04-25T12:03:23;7.50;;;3.55;;
11970;SDS011;6045;42.682;23.294;2023-04-25T12:05:52;0.83;;;0.60;;
11970;SDS011;6045;42.682;23.294;2023-04-25T12:08:19;0.25;;;0.25;;
11970;SDS011;6045;42.682;23.294;2023-04-25T12:10:47;0.52;;;0.52;;
11970;SDS011;6045;42.682;23.294;2023-04-25T12:13:17;0.50;;;0.40;;
11970;SDS011;6045;42.682;23.294;2023-04-25T12:15:46;0.35;;;0.20;;
11970;SDS011;6045;42.682;23.294;2023-04-25T12:18:13;0.57;;;0.57;;
11970;SDS011;6045;42.682;23.294;2023-04-25T12:20:41;0.70;;;0.50;;
11970;SDS011;6045;42.682;23.294;2023-04-25T12:23:07;0.40;;;0.40;;
11970;SDS011;6045;42.682;23.294;2023-04-25T12:25:36;1.08;;;0.73;;
11970;SDS011;6045;42.682;23.294;2023-04-25T12:28:16;1.63;;;0.55;;
11970;SDS011;6045;42.682;23.294;2023-04-25T12:30:57;0.52;;;0.50;;
11970;SDS011;6045;42.682;23.294;2023-04-25T12:33:26;0.47;;;0.47;;
11970;SDS011;6045;42.682;23.294;2023-04-25T12:35:55;1.30;;;0.60;;
11970;SDS011;6045;42.682;23.294;2023-04-25T12:38:23;1.17;;;0.47;;
11970;SDS011;6045;42.682;23.294;2023-04-25T12:40:50;1.73;;;0.60;;
11970;SDS011;6045;42.682;23.294;2023-04-25T12:43:19;0.73;;;0.52;;
11970;SDS011;6045;42.682;23.294;2023-04-25T12:45:47;0.60;;;0.30;;
11970;SDS011;6045;42.682;23.294;2023-04-25T12:48:14;0.38;;;0.30;;
11970;SDS011;6045;42.682;23.294;2023-04-25T12:50:40;1.52;;;0.70;;
11970;SDS011;6045;42.682;23.294;2023-04-25T12:53:07;0.40;;;0.40;;
11970;SDS011;6045;42.682;23.294;2023-04-25T12:55:34;0.50;;;0.50;;
11970;SDS011;6045;42.682;23.294;2023-04-25T12:58:00;0.93;;;0.90;;
11970;SDS011;6045;42.682;23.294;2023-04-25T13:00:29;0.73;;;0.73;;
11970;SDS011;6045;42.682;23.294;2023-04-25T13:02:56;0.83;;;0.63;;
11970;SDS011;6045;42.682;23.294;2023-04-25T13:05:23;0.77;;;0.60;;
11970;SDS011;6045;42.682;23.294;2023-04-25T13:07:50;0.93;;;0.90;;
11970;SDS011;6045;42.682;23.294;2023-04-25T13:10:17;1.73;;;1.13;;
11970;SDS011;6045;42.682;23.294;2023-04-25T13:12:44;1.30;;;1.20;;
11970;SDS011;6045;42.682;23.294;2023-04-25T13:15:11;1.90;;;1.50;;
11970;SDS011;6045;42.682;23.294;2023-04-25T13:17:39;1.17;;;1.00;;
11970;SDS011;6045;42.682;23.294;2023-04-25T13:20:07;1.80;;;1.30;;
11970;SDS011;6045;42.682;23.294;2023-04-25T13:22:35;2.17;;;1.10;;
11970;SDS011;6045;42.682;23.294;2023-04-25T13:25:02;1.53;;;0.90;;
11970;SDS011;6045;42.682;23.294;2023-04-25T13:27:30;4.07;;;1.77;;
11970;SDS011;6045;42.682;23.294;2023-04-25T13:29:58;1.17;;;1.07;;
11970;SDS011;6045;42.682;23.294;2023-04-25T13:32:26;1.70;;;1.50;;
11970;SDS011;6045;42.682;23.294;2023-04-25T13:34:54;2.37;;;1.10;;
11970;SDS011;6045;42.682;23.294;2023-04-25T13:37:21;1.17;;;0.90;;
11970;SDS011;6045;42.682;23.294;2023-04-25T13:39:49;2.57;;;1.00;;
11970;SDS011;6045;42.682;23.294;2023-04-25T13:42:16;1.57;;;1.10;;
11970;SDS011;6045;42.682;23.294;2023-04-25T13:44:43;1.47;;;1.10;;
11970;SDS011;6045;42.682;23.294;2023-04-25T13:47:10;3.03;;;1.50;;
11970;SDS011;6045;42.682;23.294;2023-04-25T13:49:37;2.60;;;1.20;;
11970;SDS011;6045;42.682;23.294;2023-04-25T13:52:05;1.20;;;0.90;;
11970;SDS011;6045;42.682;23.294;2023-04-25T13:54:32;0.67;;;0.67;;
11970;SDS011;6045;42.682;23.294;2023-04-25T13:56:59;1.10;;;0.97;;
11970;SDS011;6045;42.682;23.294;2023-04-25T13:59:26;0.90;;;0.77;;
11970;SDS011;6045;42.682;23.294;2023-04-25T14:01:53;1.10;;;1.00;;
11970;SDS011;6045;42.682;23.294;2023-04-25T14:04:20;0.77;;;0.60;;
11970;SDS011;6045;42.682;23.294;2023-04-25T14:06:47;1.07;;;0.80;;
11970;SDS011;6045;42.682;23.294;2023-04-25T14:09:15;1.73;;;0.67;;
11970;SDS011;6045;42.682;23.294;2023-04-25T14:11:41;3.43;;;0.87;;
11970;SDS011;6045;42.682;23.294;2023-04-25T14:14:08;0.70;;;0.60;;
11970;SDS011;6045;42.682;23.294;2023-04-25T14:16:35;1.33;;;0.77;;
11970;SDS011;6045;42.682;23.294;2023-04-25T14:19:01;0.53;;;0.53;;
11970;SDS011;6045;42.682;23.294;2023-04-25T14:21:28;1.63;;;0.80;;
11970;SDS011;6045;42.682;23.294;2023-04-25T14:23:56;1.20;;;0.73;;
11970;SDS011;6045;42.682;23.294;2023-04-25T14:26:24;0.70;;;0.70;;
11970;SDS011;6045;42.682;23.294;2023-04-25T14:28:51;0.67;;;0.67;;
11970;SDS011;6045;42.682;23.294;2023-04-25T14:31:18;0.87;;;0.70;;
11970;SDS011;6045;42.682;23.294;2023-04-25T14:33:46;0.73;;;0.70;;
11970;SDS011;6045;42.682;23.294;2023-04-25T14:36:12;0.90;;;0.80;;
11970;SDS011;6045;42.682;23.294;2023-04-25T14:38:39;1.37;;;0.80;;
11970;SDS011;6045;42.682;23.294;2023-04-25T14:41:06;0.77;;;0.63;;
11970;SDS011;6045;42.682;23.294;2023-04-25T14:43:34;0.60;;;0.60;;
11970;SDS011;6045;42.682;23.294;2023-04-25T14:46:01;1.23;;;0.60;;
11970;SDS011;6045;42.682;23.294;2023-04-25T14:48:28;1.13;;;0.60;;
11970;SDS011;6045;42.682;23.294;2023-04-25T14:50:55;2.57;;;0.87;;